Time;durP1;ratioP1;P1;durP2;ratioP2;P2;SDS_P1;SDS_P2;PMS_P1;PMS_P2;Temp;Humidity;BMP_temperature;BMP_pressure;BME280_temperature;BME280_humidity;BME280_pressure;Samples;Min_cycle;Max_cycle;Signal;HPM_P1;HPM_P2
2023/05/11 00:00:32;;;;;;;;;;;10.90;99.90;;;;;;5117651;27;19931;-69
2023/05/11 00:02:58;;;;;;;;;;;11.20;99.90;;;;;;5132195;27;19923;-69
2023/05/11 00:05:23;;;;;;;;;;;10.90;99.90;;;;;;5132503;27;19984;-69
2023/05/11 00:07:49;;;;;;;;;;;11.20;99.90;;;;;;5132451;27;19919;-69
2023/05/11 00:10:15;;;;;;;;;;;11.20;99.90;;;;;;5117455;27;20012;-69
2023/05/11 00:12:40;;;;;;;;;;;10.80;99.90;;;;;;5115615;27;19916;-70
2023/05/11 00:15:06;;;;;;;;;;;11.20;99.90;;;;;;5127949;27;20389;-69
2023/05/11 00:17:31;;;;;;;;;;;11.20;99.90;;;;;;5115080;27;20282;-69
2023/05/11 00:19:57;;;;;;;;;;;10.70;99.90;;;;;;5132300;27;20468;-69
2023/05/11 00:22:22;;;;;;;;;;;11.00;99.90;;;;;;5132193;27;19927;-69
2023/05/11 00:24:48;;;;;;;;;;;10.80;99.90;;;;;;5132137;27;19919;-69
2023/05/11 00:27:14;;;;;;;;;;;11.00;99.90;;;;;;5114810;27;19922;-69
2023/05/11 00:29:39;;;;;;;;;;;11.10;99.90;;;;;;5133520;27;19919;-69
2023/05/11 00:32:05;;;;;;;;;;;11.10;99.90;;;;;;5128366;27;19948;-69
2023/05/11 00:34:30;;;;;;;;;;;11.10;99.90;;;;;;5125363;27;19924;-69
2023/05/11 00:36:56;;;;;;;;;;;10.80;99.90;;;;;;5127443;27;19919;-69
2023/05/11 00:39:22;;;;;;;;;;;10.60;99.90;;;;;;5125758;27;20377;-69
2023/05/11 00:41:47;;;;;;;;;;;11.00;99.90;;;;;;5126736;27;19923;-69
2023/05/11 00:44:13;;;;;;;;;;;11.00;99.90;;;;;;5121006;27;20325;-70
2023/05/11 00:46:38;;;;;;;;;;;11.10;99.90;;;;;;5101837;27;19915;-69
2023/05/11 00:49:04;;;;;;;;;;;10.80;99.90;;;;;;5137878;27;19914;-69
2023/05/11 00:51:31;;;;;;;;;;;11.00;99.90;;;;;;5128780;27;20006;-69
2023/05/11 00:53:57;;;;;;;;;;;11.00;99.90;;;;;;5140076;27;20289;-69
2023/05/11 00:56:23;;;;;;;;;;;11.00;99.90;;;;;;5136317;27;20331;-69
2023/05/11 00:58:48;;;;;;;;;;;10.70;99.90;;;;;;5130556;27;19919;-69
2023/05/11 01:01:16;;;;;;;;;;;10.60;99.90;;;;;;5127590;27;20433;-69
2023/05/11 01:03:42;;;;;;;;;;;11.00;99.90;;;;;;5112869;27;19991;-70
2023/05/11 01:06:10;;;;;;;;;;;10.80;99.90;;;;;;5142039;27;20363;-69
2023/05/11 01:08:39;;;;;;;;;;;10.90;99.90;;;;;;5105284;27;19922;-69
2023/05/11 01:11:14;;;;;;;;;;;11.00;99.90;;;;;;5107190;27;19922;-69
2023/05/11 01:13:47;;;;;;;;;;;10.60;99.90;;;;;;5113407;27;19916;-69
2023/05/11 01:16:20;;;;;;;;;;;11.10;99.90;;;;;;5126861;27;20341;-69
2023/05/11 01:18:50;;;;;;;;;;;11.00;99.90;;;;;;5128161;27;19963;-69
2023/05/11 01:21:16;;;;;;;;;;;11.10;99.90;;;;;;5130109;27;19915;-69
2023/05/11 01:24:00;;;;;;;;;;;10.60;99.90;;;;;;5125003;27;19927;-70
2023/05/11 01:26:46;;;;;;;;;;;11.00;99.90;;;;;;5117313;27;19923;-69
2023/05/11 01:29:17;;;;;;;;;;;11.10;99.90;;;;;;5125777;27;20020;-69
2023/05/11 01:31:46;;;;;;;;;;;10.70;99.90;;;;;;5121393;27;19920;-69
2023/05/11 01:34:14;;;;;;;;;;;10.90;99.90;;;;;;5119579;27;19919;-69
2023/05/11 01:36:43;;;;;;;;;;;11.10;99.90;;;;;;5121127;27;19916;-69
2023/05/11 01:39:10;;;;;;;;;;;10.70;99.90;;;;;;5123951;27;20030;-69
2023/05/11 01:41:37;;;;;;;;;;;11.10;99.90;;;;;;5113715;27;19915;-69
2023/05/11 01:44:05;;;;;;;;;;;11.10;99.90;;;;;;5096802;27;19919;-69
2023/05/11 01:46:31;;;;;;;;;;;10.90;99.90;;;;;;5150390;27;19926;-69
2023/05/11 01:48:58;;;;;;;;;;;10.70;99.90;;;;;;5139881;27;19919;-69
2023/05/11 01:51:29;;;;;;;;;;;11.20;99.90;;;;;;5131945;27;19919;-70
2023/05/11 01:53:55;;;;;;;;;;;10.80;99.90;;;;;;5151385;27;20010;-69
2023/05/11 01:56:21;;;;;;;;;;;10.70;99.90;;;;;;5150911;27;19968;-69
2023/05/11 01:58:48;;;;;;;;;;;10.80;99.90;;;;;;5126407;27;19919;-69
2023/05/11 02:01:14;;;;;;;;;;;10.80;99.90;;;;;;5133883;27;19934;-69
2023/05/11 02:03:41;;;;;;;;;;;11.10;99.90;;;;;;5130244;27;19919;-69
2023/05/11 02:06:08;;;;;;;;;;;11.10;99.90;;;;;;5113399;28;19990;-69
2023/05/11 02:08:34;;;;;;;;;;;10.80;99.90;;;;;;5140699;27;19918;-69
2023/05/11 02:11:01;;;;;;;;;;;10.80;99.90;;;;;;5139232;27;19969;-69
2023/05/11 02:13:28;;;;;;;;;;;11.10;99.90;;;;;;5130612;28;19961;-69
2023/05/11 02:15:55;;;;;;;;;;;10.90;99.90;;;;;;5121241;27;19927;-69
2023/05/11 02:18:21;;;;;;;;;;;10.70;99.90;;;;;;5130200;27;19972;-69
2023/05/11 02:20:47;;;;;;;;;;;11.10;99.90;;;;;;5129987;27;19919;-69
2023/05/11 02:23:12;;;;;;;;;;;11.00;99.90;;;;;;5113260;28;19925;-71
2023/05/11 02:25:39;;;;;;;;;;;11.00;99.90;;;;;;5130221;27;19915;-69
2023/05/11 02:28:05;;;;;;;;;;;10.80;99.90;;;;;;5131322;27;19919;-69
2023/05/11 02:30:31;;;;;;;;;;;10.80;99.90;;;;;;5113284;28;19970;-69
2023/05/11 02:32:59;;;;;;;;;;;11.10;99.90;;;;;;5110728;28;19926;-69
2023/05/11 02:35:27;;;;;;;;;;;10.80;99.90;;;;;;5128105;27;20388;-69
2023/05/11 02:37:54;;;;;;;;;;;11.10;99.90;;;;;;5113050;28;19973;-70
2023/05/11 02:40:22;;;;;;;;;;;11.00;99.90;;;;;;5130380;27;19922;-70
2023/05/11 02:42:48;;;;;;;;;;;10.80;99.90;;;;;;5130354;28;20434;-70
2023/05/11 02:45:15;;;;;;;;;;;11.20;99.90;;;;;;5130305;27;19983;-70
2023/05/11 02:47:52;;;;;;;;;;;11.20;99.90;;;;;;5112177;27;20431;-70
2023/05/11 02:50:18;;;;;;;;;;;11.20;99.90;;;;;;5110990;27;19924;-70
2023/05/11 02:52:45;;;;;;;;;;;11.00;99.90;;;;;;5130121;28;19923;-70
2023/05/11 02:55:12;;;;;;;;;;;11.30;99.90;;;;;;5129941;27;19971;-70
2023/05/11 02:57:38;;;;;;;;;;;10.70;99.90;;;;;;5110914;27;19916;-70
2023/05/11 03:00:04;;;;;;;;;;;11.20;99.90;;;;;;5130210;27;20281;-70
2023/05/11 03:02:29;;;;;;;;;;;11.00;99.90;;;;;;5133876;27;19965;-70
2023/05/11 03:04:55;;;;;;;;;;;11.20;99.90;;;;;;5130593;27;20042;-70
2023/05/11 03:07:20;;;;;;;;;;;10.80;99.90;;;;;;5146446;27;19918;-70
2023/05/11 03:09:46;;;;;;;;;;;10.80;99.90;;;;;;5136167;27;19978;-70
2023/05/11 03:12:12;;;;;;;;;;;10.70;99.90;;;;;;5148218;27;20366;-70
2023/05/11 03:14:38;;;;;;;;;;;11.20;99.90;;;;;;5152479;27;20410;-70
2023/05/11 03:17:05;;;;;;;;;;;11.10;99.90;;;;;;5145800;27;20009;-70
2023/05/11 03:19:30;;;;;;;;;;;10.70;99.90;;;;;;5138346;27;20362;-70
2023/05/11 03:21:57;;;;;;;;;;;10.70;99.90;;;;;;5137819;27;19915;-70
2023/05/11 03:24:23;;;;;;;;;;;11.00;99.90;;;;;;5113058;28;19941;-70
2023/05/11 03:26:49;;;;;;;;;;;11.10;99.90;;;;;;5131572;27;19920;-70
2023/05/11 03:29:16;;;;;;;;;;;10.70;99.90;;;;;;5140613;27;20063;-69
2023/05/11 03:31:41;;;;;;;;;;;10.70;99.90;;;;;;5140435;27;19918;-70
2023/05/11 03:34:07;;;;;;;;;;;10.70;99.90;;;;;;5153787;27;19996;-69
2023/05/11 03:36:34;;;;;;;;;;;11.30;99.90;;;;;;5142724;27;19918;-69
2023/05/11 03:39:00;;;;;;;;;;;11.30;99.90;;;;;;5136166;27;19922;-69
2023/05/11 03:41:27;;;;;;;;;;;11.10;99.90;;;;;;5135905;27;19958;-70
2023/05/11 03:43:54;;;;;;;;;;;11.10;99.90;;;;;;5153556;27;19927;-70
2023/05/11 03:46:21;;;;;;;;;;;10.70;99.90;;;;;;5151005;27;20319;-70
2023/05/11 03:48:47;;;;;;;;;;;11.20;99.90;;;;;;5141312;27;19954;-70
2023/05/11 03:51:13;;;;;;;;;;;10.60;99.90;;;;;;5151934;27;19975;-70
2023/05/11 03:53:39;;;;;;;;;;;10.70;99.90;;;;;;5115633;27;19919;-70
2023/05/11 03:56:06;;;;;;;;;;;11.20;99.90;;;;;;5119768;27;20113;-70
2023/05/11 03:58:31;;;;;;;;;;;11.20;99.90;;;;;;5139824;27;20234;-69
2023/05/11 04:00:57;;;;;;;;;;;10.80;99.90;;;;;;5138280;27;19919;-70
2023/05/11 04:03:23;;;;;;;;;;;11.20;99.90;;;;;;5130237;27;20469;-70
2023/05/11 04:05:48;;;;;;;;;;;10.70;99.90;;;;;;5112622;27;19926;-69
2023/05/11 04:08:14;;;;;;;;;;;11.30;99.90;;;;;;5121776;27;20018;-69
2023/05/11 04:10:40;;;;;;;;;;;11.20;99.90;;;;;;5132268;27;19930;-70
2023/05/11 04:13:05;;;;;;;;;;;11.40;99.90;;;;;;5136485;27;19916;-70
2023/05/11 04:15:31;;;;;;;;;;;11.30;99.90;;;;;;5133992;27;20421;-70
2023/05/11 04:17:56;;;;;;;;;;;10.80;99.90;;;;;;5142559;27;19954;-70
2023/05/11 04:20:22;;;;;;;;;;;10.80;99.90;;;;;;5122392;27;19923;-70
2023/05/11 04:22:47;;;;;;;;;;;11.40;99.90;;;;;;5130690;27;19930;-70
2023/05/11 04:25:13;;;;;;;;;;;11.40;99.90;;;;;;5118739;27;19982;-71
2023/05/11 04:27:39;;;;;;;;;;;10.80;99.90;;;;;;5116539;27;20061;-71
2023/05/11 04:30:05;;;;;;;;;;;11.40;99.90;;;;;;5120029;27;19945;-70
2023/05/11 04:32:31;;;;;;;;;;;11.30;99.90;;;;;;5119885;27;19959;-71
2023/05/11 04:34:56;;;;;;;;;;;10.90;99.90;;;;;;5122645;27;20378;-71
2023/05/11 04:37:22;;;;;;;;;;;10.80;99.90;;;;;;5124354;27;19973;-70
2023/05/11 04:39:47;;;;;;;;;;;10.80;99.90;;;;;;5124401;27;19922;-71
2023/05/11 04:42:13;;;;;;;;;;;10.90;99.90;;;;;;5127581;27;20332;-71
2023/05/11 04:44:38;;;;;;;;;;;10.80;99.90;;;;;;5124644;27;19916;-71
2023/05/11 04:47:04;;;;;;;;;;;11.50;99.90;;;;;;5128194;27;20439;-71
2023/05/11 04:49:30;;;;;;;;;;;11.30;99.90;;;;;;5144710;27;19919;-70
2023/05/11 04:51:56;;;;;;;;;;;11.40;99.90;;;;;;5136011;27;19967;-71
2023/05/11 04:54:21;;;;;;;;;;;11.50;99.90;;;;;;5150054;27;19919;-70
2023/05/11 04:56:47;;;;;;;;;;;10.90;99.90;;;;;;5119148;27;19940;-70
2023/05/11 04:59:13;;;;;;;;;;;11.00;99.90;;;;;;5116437;27;19919;-70
2023/05/11 05:01:38;;;;;;;;;;;10.90;99.90;;;;;;5119768;27;20354;-70
2023/05/11 05:04:04;;;;;;;;;;;11.50;99.90;;;;;;5126257;27;19968;-70
2023/05/11 05:06:31;;;;;;;;;;;11.50;99.90;;;;;;5129481;27;19966;-70
2023/05/11 05:08:56;;;;;;;;;;;10.90;99.90;;;;;;5109458;27;19915;-70
2023/05/11 05:11:23;;;;;;;;;;;11.00;99.90;;;;;;5119609;27;19980;-70
2023/05/11 05:13:48;;;;;;;;;;;10.90;99.90;;;;;;5126226;27;19919;-70
2023/05/11 05:16:14;;;;;;;;;;;10.90;99.90;;;;;;5126533;27;20286;-70
2023/05/11 05:18:40;;;;;;;;;;;11.00;99.90;;;;;;5132912;27;20444;-70
2023/05/11 05:21:05;;;;;;;;;;;11.00;99.90;;;;;;5112124;27;19919;-70
2023/05/11 05:23:31;;;;;;;;;;;11.60;99.90;;;;;;5130525;27;19915;-70
2023/05/11 05:25:56;;;;;;;;;;;10.90;99.90;;;;;;5124122;27;19966;-70
2023/05/11 05:28:22;;;;;;;;;;;11.50;99.90;;;;;;5114138;27;19919;-70
2023/05/11 05:30:48;;;;;;;;;;;11.60;99.90;;;;;;5097487;27;19922;-70
2023/05/11 05:33:13;;;;;;;;;;;11.40;99.90;;;;;;5121185;27;19927;-70
2023/05/11 05:35:39;;;;;;;;;;;11.10;99.90;;;;;;5100413;27;19935;-70
2023/05/11 05:38:04;;;;;;;;;;;11.50;99.90;;;;;;5122237;27;19974;-70
2023/05/11 05:40:30;;;;;;;;;;;11.70;99.90;;;;;;5126495;27;19964;-71
2023/05/11 05:42:56;;;;;;;;;;;11.10;99.90;;;;;;5129763;27;19931;-70
2023/05/11 05:45:21;;;;;;;;;;;11.10;99.90;;;;;;5125470;27;19967;-70
2023/05/11 05:47:47;;;;;;;;;;;11.20;99.90;;;;;;5133972;27;20013;-70
2023/05/11 05:50:13;;;;;;;;;;;11.30;99.90;;;;;;5112145;27;19920;-70
2023/05/11 05:52:39;;;;;;;;;;;11.30;99.90;;;;;;5133064;27;20480;-70
2023/05/11 05:55:05;;;;;;;;;;;11.50;99.90;;;;;;5114343;27;19923;-70
2023/05/11 05:57:30;;;;;;;;;;;11.50;99.90;;;;;;5116161;27;20374;-71
2023/05/11 05:59:56;;;;;;;;;;;11.90;99.90;;;;;;5117846;27;19915;-69
2023/05/11 06:02:21;;;;;;;;;;;11.80;99.90;;;;;;5119919;27;20001;-70
2023/05/11 06:04:47;;;;;;;;;;;11.50;99.90;;;;;;5097076;27;20028;-69
2023/05/11 06:07:13;;;;;;;;;;;11.80;99.90;;;;;;5096304;27;19998;-69
2023/05/11 06:09:39;;;;;;;;;;;11.60;99.90;;;;;;5120385;27;20283;-69
2023/05/11 06:12:05;;;;;;;;;;;11.80;99.90;;;;;;5112960;27;19975;-70
2023/05/11 06:14:31;;;;;;;;;;;11.50;99.90;;;;;;5122702;27;19977;-78
2023/05/11 06:16:57;;;;;;;;;;;12.00;99.90;;;;;;5121247;28;19967;-69
2023/05/11 06:19:22;;;;;;;;;;;11.80;99.90;;;;;;5147006;27;19919;-69
2023/05/11 06:21:48;;;;;;;;;;;11.70;99.90;;;;;;5129142;28;19922;-69
2023/05/11 06:24:14;;;;;;;;;;;11.70;99.90;;;;;;5128444;28;19937;-70
2023/05/11 06:26:42;;;;;;;;;;;11.80;99.90;;;;;;5129986;27;19964;-70
2023/05/11 06:29:08;;;;;;;;;;;12.10;99.90;;;;;;5130196;28;19916;-70
2023/05/11 06:31:33;;;;;;;;;;;12.30;99.90;;;;;;5135032;27;19930;-70
2023/05/11 06:33:59;;;;;;;;;;;12.10;99.90;;;;;;5146068;27;19923;-70
2023/05/11 06:36:24;;;;;;;;;;;12.60;99.90;;;;;;5124395;27;19949;-70
2023/05/11 06:38:50;;;;;;;;;;;12.40;99.90;;;;;;5123981;27;20366;-69
2023/05/11 06:41:16;;;;;;;;;;;12.20;99.90;;;;;;5123044;27;19919;-69
2023/05/11 06:43:41;;;;;;;;;;;12.50;99.90;;;;;;5122858;27;20308;-69
2023/05/11 06:46:07;;;;;;;;;;;12.60;99.90;;;;;;5124344;27;19964;-69
2023/05/11 06:48:32;;;;;;;;;;;12.70;99.90;;;;;;5122967;27;19925;-69
2023/05/11 06:50:58;;;;;;;;;;;12.40;99.90;;;;;;5107909;27;19997;-70
2023/05/11 06:53:24;;;;;;;;;;;12.60;99.90;;;;;;5125944;27;20307;-69
2023/05/11 06:55:49;;;;;;;;;;;12.70;99.90;;;;;;5123278;27;20397;-69
2023/05/11 06:58:16;;;;;;;;;;;12.50;99.90;;;;;;5121130;27;19927;-68
2023/05/11 07:00:41;;;;;;;;;;;12.70;99.90;;;;;;5113270;28;20371;-68
2023/05/11 07:03:07;;;;;;;;;;;12.40;99.90;;;;;;5095394;28;19920;-68
2023/05/11 07:05:34;;;;;;;;;;;12.40;99.90;;;;;;5113262;28;20010;-68
2023/05/11 07:07:59;;;;;;;;;;;12.70;99.90;;;;;;5113083;28;19961;-69
2023/05/11 07:10:25;;;;;;;;;;;12.60;99.90;;;;;;5113062;28;19966;-69
2023/05/11 07:12:51;;;;;;;;;;;12.90;99.90;;;;;;5133240;27;19968;-69
2023/05/11 07:15:16;;;;;;;;;;;12.70;99.90;;;;;;5116384;27;20003;-69
2023/05/11 07:17:46;;;;;;;;;;;12.70;99.90;;;;;;5109229;27;20362;-69
2023/05/11 07:20:11;;;;;;;;;;;12.90;99.90;;;;;;5127358;27;19972;-69
2023/05/11 07:22:37;;;;;;;;;;;12.90;99.90;;;;;;5130519;27;19923;-69
2023/05/11 07:25:03;;;;;;;;;;;12.90;99.90;;;;;;5128494;27;20451;-69
2023/05/11 07:27:30;;;;;;;;;;;12.90;99.90;;;;;;5125163;27;20389;-69
2023/05/11 07:29:55;;;;;;;;;;;12.90;99.90;;;;;;5126923;27;20374;-69
2023/05/11 07:32:21;;;;;;;;;;;12.80;99.90;;;;;;5124643;27;19945;-69
2023/05/11 07:34:47;;;;;;;;;;;12.90;99.90;;;;;;5133325;27;20386;-69
2023/05/11 07:37:12;;;;;;;;;;;12.90;99.90;;;;;;5146566;27;19950;-69
2023/05/11 07:39:38;;;;;;;;;;;12.80;99.90;;;;;;5131170;27;19916;-72
2023/05/11 07:42:04;;;;;;;;;;;12.90;99.90;;;;;;5127457;27;19922;-72
2023/05/11 07:44:30;;;;;;;;;;;13.00;99.90;;;;;;5134766;27;20298;-74
2023/05/11 07:46:56;;;;;;;;;;;13.00;99.90;;;;;;5112507;27;19915;-73
2023/05/11 07:49:21;;;;;;;;;;;13.10;99.90;;;;;;5129423;27;19922;-73
2023/05/11 07:51:47;;;;;;;;;;;13.00;99.90;;;;;;5130900;27;19919;-72
2023/05/11 07:54:13;;;;;;;;;;;13.10;99.90;;;;;;5131542;27;19923;-72
2023/05/11 07:56:38;;;;;;;;;;;13.10;99.90;;;;;;5133077;27;20010;-72
2023/05/11 07:59:04;;;;;;;;;;;13.10;99.90;;;;;;5131394;27;20224;-72
2023/05/11 08:01:31;;;;;;;;;;;13.10;99.90;;;;;;5115189;27;19937;-72
2023/05/11 08:03:58;;;;;;;;;;;13.10;99.90;;;;;;5132396;27;19926;-72
2023/05/11 08:06:24;;;;;;;;;;;13.00;99.90;;;;;;5132503;27;19919;-72
2023/05/11 08:08:49;;;;;;;;;;;13.10;99.90;;;;;;5132533;27;19923;-72
2023/05/11 08:11:15;;;;;;;;;;;13.20;99.90;;;;;;5132410;27;19922;-72
2023/05/11 08:13:40;;;;;;;;;;;13.10;99.90;;;;;;5132838;27;19970;-72
2023/05/11 08:16:06;;;;;;;;;;;13.30;99.90;;;;;;5115127;27;20331;-72
2023/05/11 08:18:32;;;;;;;;;;;13.20;99.90;;;;;;5132533;27;19919;-72
2023/05/11 08:20:57;;;;;;;;;;;13.10;99.90;;;;;;5132574;27;19915;-72
2023/05/11 08:23:23;;;;;;;;;;;13.20;99.90;;;;;;5115144;27;20430;-72
2023/05/11 08:25:58;;;;;;;;;;;13.30;99.90;;;;;;5132157;27;20010;-72
2023/05/11 08:28:24;;;;;;;;;;;13.20;99.90;;;;;;5132437;27;19930;-73
2023/05/11 08:30:56;;;;;;;;;;;13.20;99.90;;;;;;5132573;27;19915;-73
2023/05/11 08:33:22;;;;;;;;;;;13.30;99.90;;;;;;5132632;27;20328;-72
2023/05/11 08:35:48;;;;;;;;;;;13.20;99.90;;;;;;5131852;27;20397;-72
2023/05/11 08:38:14;;;;;;;;;;;13.30;99.90;;;;;;5132173;27;19919;-73
2023/05/11 08:40:46;;;;;;;;;;;13.30;99.90;;;;;;5114995;27;19923;-73
2023/05/11 08:43:16;;;;;;;;;;;13.30;99.90;;;;;;5132261;27;20373;-72
2023/05/11 08:45:46;;;;;;;;;;;13.50;99.90;;;;;;5131901;27;20392;-72
2023/05/11 08:48:14;;;;;;;;;;;13.40;99.90;;;;;;5132517;27;20346;-73
2023/05/11 08:50:40;;;;;;;;;;;13.30;99.90;;;;;;5133465;27;19922;-72
2023/05/11 08:53:05;;;;;;;;;;;13.30;99.90;;;;;;5132075;27;19919;-72
2023/05/11 08:55:32;;;;;;;;;;;13.50;99.90;;;;;;5131613;27;20272;-72
2023/05/11 08:57:59;;;;;;;;;;;13.50;99.90;;;;;;5131506;27;19920;-72
2023/05/11 09:00:25;;;;;;;;;;;13.40;99.90;;;;;;5131543;27;19915;-72
2023/05/11 09:02:51;;;;;;;;;;;13.40;99.90;;;;;;5131508;27;19915;-72
2023/05/11 09:05:17;;;;;;;;;;;13.50;99.90;;;;;;5131877;27;19982;-72
2023/05/11 09:07:46;;;;;;;;;;;13.70;99.90;;;;;;5131562;27;19919;-72
2023/05/11 09:10:12;;;;;;;;;;;13.70;99.90;;;;;;5132054;27;19915;-73
2023/05/11 09:12:37;;;;;;;;;;;13.70;99.90;;;;;;5114359;27;20050;-73
2023/05/11 09:15:03;;;;;;;;;;;13.80;99.90;;;;;;5131475;27;19923;-73
2023/05/11 09:17:29;;;;;;;;;;;13.80;99.90;;;;;;5131290;27;19919;-72
2023/05/11 09:20:04;;;;;;;;;;;13.80;99.90;;;;;;5131229;27;19919;-72
2023/05/11 09:22:33;;;;;;;;;;;13.80;99.90;;;;;;5131663;27;19915;-72
2023/05/11 09:25:00;;;;;;;;;;;13.80;99.90;;;;;;5131081;27;20437;-72
2023/05/11 09:27:26;;;;;;;;;;;13.80;99.90;;;;;;5131437;27;19980;-73
2023/05/11 09:29:54;;;;;;;;;;;13.80;99.90;;;;;;5131029;27;20469;-74
2023/05/11 09:32:20;;;;;;;;;;;13.80;99.90;;;;;;5113970;27;19959;-73
2023/05/11 09:34:46;;;;;;;;;;;13.90;99.90;;;;;;5114024;27;19924;-73
2023/05/11 09:37:16;;;;;;;;;;;14.10;99.90;;;;;;5130821;27;19926;-73
2023/05/11 09:39:41;;;;;;;;;;;14.30;99.90;;;;;;5131080;27;19916;-72
2023/05/11 09:42:12;;;;;;;;;;;14.60;99.90;;;;;;5131163;27;19946;-72
2023/05/11 09:44:37;;;;;;;;;;;14.90;99.90;;;;;;5131151;27;20393;-73
2023/05/11 09:47:09;;;;;;;;;;;15.20;99.90;;;;;;5130819;27;19919;-73
2023/05/11 09:49:35;;;;;;;;;;;15.40;99.90;;;;;;5130773;27;19963;-72
2023/05/11 09:52:00;;;;;;;;;;;15.40;99.90;;;;;;5130807;27;19923;-72
2023/05/11 09:54:27;;;;;;;;;;;15.70;99.90;;;;;;5130840;27;20048;-73
2023/05/11 09:56:55;;;;;;;;;;;15.90;99.90;;;;;;5130978;27;19919;-73
2023/05/11 09:59:37;;;;;;;;;;;16.20;99.90;;;;;;5130654;27;19923;-73
2023/05/11 10:02:22;;;;;;;;;;;16.40;99.90;;;;;;5130517;27;19919;-73
2023/05/11 10:04:51;;;;;;;;;;;16.70;99.90;;;;;;5130142;27;19930;-72
2023/05/11 10:07:28;;;;;;;;;;;17.10;99.90;;;;;;5130400;28;19920;-73
2023/05/11 10:09:54;;;;;;;;;;;17.20;99.90;;;;;;5129982;27;20114;-72
2023/05/11 10:12:20;;;;;;;;;;;17.10;99.90;;;;;;5130379;28;19915;-72
2023/05/11 10:14:47;;;;;;;;;;;17.00;99.90;;;;;;5113439;28;20280;-72
2023/05/11 10:17:13;;;;;;;;;;;16.90;99.90;;;;;;5130528;28;19958;-72
2023/05/11 10:19:39;;;;;;;;;;;17.00;99.90;;;;;;5130445;28;19922;-73
2023/05/11 10:22:05;;;;;;;;;;;16.90;99.90;;;;;;5130338;28;19915;-73
2023/05/11 10:24:31;;;;;;;;;;;16.90;99.90;;;;;;5130294;28;19916;-73
2023/05/11 10:26:57;;;;;;;;;;;17.00;99.90;;;;;;5130194;27;20370;-72
2023/05/11 10:29:23;;;;;;;;;;;17.10;99.90;;;;;;5130242;28;19915;-72
2023/05/11 10:31:50;;;;;;;;;;;17.00;99.90;;;;;;5130504;27;19922;-72
2023/05/11 10:34:16;;;;;;;;;;;17.10;99.90;;;;;;5130543;28;20332;-73
2023/05/11 10:36:43;;;;;;;;;;;17.10;99.90;;;;;;5129807;28;19919;-72
2023/05/11 10:39:08;;;;;;;;;;;17.00;99.90;;;;;;5130072;28;19919;-72
2023/05/11 10:41:45;;;;;;;;;;;16.90;99.90;;;;;;5130271;28;19915;-72
2023/05/11 10:44:11;;;;;;;;;;;17.10;99.90;;;;;;5130100;28;20344;-73
2023/05/11 10:46:52;;;;;;;;;;;17.40;99.90;;;;;;5130175;28;19915;-73
2023/05/11 10:49:30;;;;;;;;;;;17.40;99.90;;;;;;5130500;28;19926;-72
2023/05/11 10:52:01;;;;;;;;;;;17.40;99.90;;;;;;5112832;28;20486;-72
2023/05/11 10:54:39;;;;;;;;;;;17.40;99.90;;;;;;5130199;28;20376;-72
2023/05/11 10:57:11;;;;;;;;;;;17.50;99.90;;;;;;5130383;28;19919;-73
2023/05/11 10:59:56;;;;;;;;;;;17.70;99.90;;;;;;5130524;28;19973;-72
2023/05/11 11:02:22;;;;;;;;;;;18.00;99.90;;;;;;5130208;28;20005;-72
2023/05/11 11:04:48;;;;;;;;;;;18.10;99.90;;;;;;5129769;27;20007;-72
2023/05/11 11:07:18;;;;;;;;;;;17.90;99.90;;;;;;5129844;28;19964;-73
2023/05/11 11:09:50;;;;;;;;;;;17.90;99.90;;;;;;5130173;28;19931;-72
2023/05/11 11:12:15;;;;;;;;;;;18.00;99.90;;;;;;5130199;28;19920;-73
2023/05/11 11:15:01;;;;;;;;;;;18.00;99.90;;;;;;5130019;28;20420;-72
2023/05/11 11:17:30;;;;;;;;;;;18.10;99.90;;;;;;5112428;28;20339;-73
2023/05/11 11:19:56;;;;;;;;;;;18.00;99.90;;;;;;5130069;28;19968;-72
2023/05/11 11:22:34;;;;;;;;;;;17.80;99.90;;;;;;5130557;27;19916;-72
2023/05/11 11:25:00;;;;;;;;;;;17.80;99.90;;;;;;5133770;27;19921;-72
2023/05/11 11:27:41;;;;;;;;;;;18.00;99.90;;;;;;5133389;27;20366;-72
2023/05/11 11:30:19;;;;;;;;;;;18.10;99.90;;;;;;5133342;27;20006;-72
2023/05/11 11:32:46;;;;;;;;;;;18.30;99.90;;;;;;5128683;27;19966;-73
2023/05/11 11:35:30;;;;;;;;;;;18.20;99.90;;;;;;5135189;27;19923;-73
2023/05/11 11:38:01;;;;;;;;;;;18.10;99.90;;;;;;5154363;27;19922;-73
2023/05/11 11:40:36;;;;;;;;;;;18.30;99.90;;;;;;5134230;27;20397;-72
2023/05/11 11:43:18;;;;;;;;;;;18.40;99.90;;;;;;5110677;27;19916;-72
2023/05/11 11:45:52;;;;;;;;;;;18.40;99.90;;;;;;5125989;27;20362;-73
2023/05/11 11:48:32;;;;;;;;;;;18.60;99.90;;;;;;5119706;27;19919;-72
2023/05/11 11:51:05;;;;;;;;;;;18.50;99.90;;;;;;5130957;27;20378;-73
2023/05/11 11:53:51;;;;;;;;;;;18.50;99.90;;;;;;5133176;27;19915;-73
2023/05/11 11:56:17;;;;;;;;;;;18.70;81.40;;;;;;5119310;27;20015;-73
2023/05/11 11:58:43;;;;;;;;;;;18.90;99.90;;;;;;5121569;27;19942;-73
2023/05/11 12:01:13;;;;;;;;;;;18.80;1.00;;;;;;5121780;27;19931;-74
2023/05/11 12:03:40;;;;;;;;;;;18.60;28.80;;;;;;5121588;27;19927;-73
2023/05/11 12:06:06;;;;;;;;;;;18.60;99.90;;;;;;5122704;27;19915;-73
2023/05/11 12:08:32;;;;;;;;;;;18.70;99.90;;;;;;5120524;27;20015;-73
2023/05/11 12:10:58;;;;;;;;;;;18.60;99.90;;;;;;5123046;27;19970;-73
2023/05/11 12:13:24;;;;;;;;;;;18.60;36.20;;;;;;5121150;27;19927;-73
2023/05/11 12:17:22;;;;;;;3.47;0.93;;;18.70;99.90;;;;;;5108894;27;20154;-74
2023/05/11 12:19:47;;;;;;;1.85;0.60;;;18.70;1.00;;;;;;5139969;27;20377;-74
2023/05/11 12:22:15;;;;;;;;;;;19.00;1.00;;;;;;5107605;28;20123;-74
2023/05/11 12:24:41;;;;;;;0.93;0.60;;;19.10;99.90;;;;;;5107519;28;20333;-75
2023/05/11 12:27:07;;;;;;;1.90;0.70;;;19.10;1.00;;;;;;5107382;28;20479;-74
2023/05/11 12:29:33;;;;;;;;;;;19.10;1.00;;;;;;5107911;28;20070;-74
2023/05/11 12:31:59;;;;;;;1.02;0.55;;;19.00;1.00;;;;;;5107375;28;20358;-74
2023/05/11 12:34:25;;;;;;;0.70;0.50;;;19.00;1.00;;;;;;5107189;27;20130;-74
2023/05/11 12:36:52;;;;;;;;;;;19.00;1.00;;;;;;5073473;28;20122;-74
2023/05/11 12:39:19;;;;;;;1.30;1.00;;;19.00;61.40;;;;;;5106605;28;20012;-74
2023/05/11 12:41:50;;;;;;;0.73;0.70;;;18.80;1.00;;;;;;5112698;28;20046;-74
2023/05/11 12:44:17;;;;;;;1.00;0.90;;;18.80;1.00;;;;;;5104375;28;20222;-74
2023/05/11 12:46:45;;;;;;;1.05;0.93;;;18.90;1.00;;;;;;5126839;28;20051;-74
2023/05/11 12:49:14;;;;;;;1.60;1.17;;;18.90;1.00;;;;;;5119414;28;20440;-75
2023/05/11 12:51:59;;;;;;;1.30;1.20;;;19.00;99.90;;;;;;5106258;28;20043;-75
2023/05/11 12:54:26;;;;;;;1.60;1.40;;;19.00;96.30;;;;;;5089612;28;20055;-71
2023/05/11 12:56:52;;;;;;;1.40;1.17;;;18.80;77.40;;;;;;5112746;28;20366;-71
2023/05/11 12:59:23;;;;;;;;;;;18.60;1.00;;;;;;5095390;28;20040;-69
2023/05/11 13:01:49;;;;;;;2.10;1.50;;;18.50;1.00;;;;;;5101907;28;20010;-69
2023/05/11 13:04:15;;;;;;;;;;;18.50;48.50;;;;;;5098653;28;20111;-69
2023/05/11 13:06:44;;;;;;;1.98;1.58;;;18.60;89.20;;;;;;5077591;28;19923;-69
2023/05/11 13:09:09;;;;;;;2.33;1.20;;;18.60;19.90;;;;;;5094722;28;20086;-69
2023/05/11 13:11:35;;;;;;;;;;;18.60;43.90;;;;;;5096351;28;20082;-69
2023/05/11 13:14:15;;;;;;;1.42;1.25;;;18.50;99.90;;;;;;5095646;28;19920;-69
2023/05/11 13:16:52;;;;;;;1.52;1.20;;;18.50;1.00;;;;;;5094917;28;20049;-69
2023/05/11 13:19:30;;;;;;;1.50;1.13;;;18.50;99.90;;;;;;5092683;28;20043;-69
2023/05/11 13:21:56;;;;;;;1.80;1.40;;;18.60;82.10;;;;;;5094637;28;20044;-71
2023/05/11 13:24:25;;;;;;;1.95;1.38;;;18.50;97.00;;;;;;5095014;28;20032;-71
2023/05/11 13:26:52;;;;;;;2.63;1.80;;;18.70;99.90;;;;;;5098287;28;20174;-71
2023/05/11 13:29:18;;;;;;;2.40;1.80;;;18.50;81.40;;;;;;5092237;28;20060;-70
2023/05/11 13:31:44;;;;;;;;;;;18.30;99.90;;;;;;5086281;28;20075;-71
2023/05/11 13:34:10;;;;;;;1.73;1.63;;;18.10;99.90;;;;;;5080547;28;19968;-71
2023/05/11 13:36:36;;;;;;;2.25;1.88;;;17.80;99.90;;;;;;5086590;28;20060;-71
2023/05/11 13:39:02;;;;;;;1.77;1.50;;;17.50;99.90;;;;;;5091999;28;20139;-70
2023/05/11 13:41:28;;;;;;;;;;;17.60;99.90;;;;;;5092635;28;20527;-71
2023/05/11 13:43:54;;;;;;;1.50;1.40;;;17.70;99.90;;;;;;5091864;28;19919;-70
2023/05/11 13:46:20;;;;;;;;;;;17.60;99.90;;;;;;5093449;28;20163;-70
2023/05/11 13:48:46;;;;;;;1.80;1.35;;;17.70;99.90;;;;;;5091529;28;20371;-71
2023/05/11 13:51:12;;;;;;;;;;;17.60;99.90;;;;;;5075266;28;20040;-70
2023/05/11 13:53:38;;;;;;;1.67;1.40;;;17.60;99.90;;;;;;5090283;28;19920;-70
2023/05/11 13:56:04;;;;;;;1.48;1.38;;;17.30;99.90;;;;;;5091058;28;20090;-71
2023/05/11 13:58:30;;;;;;;1.25;1.15;;;17.10;99.90;;;;;;5092776;28;20048;-70
2023/05/11 14:00:56;;;;;;;;;;;17.00;99.90;;;;;;5087325;28;20032;-70
2023/05/11 14:03:22;;;;;;;3.15;1.58;;;17.00;99.90;;;;;;5080775;28;19920;-71
2023/05/11 14:05:48;;;;;;;2.35;1.00;;;17.00;99.90;;;;;;5063604;28;20465;-70
2023/05/11 14:08:14;;;;;;;2.92;1.50;;;17.10;99.90;;;;;;5081890;28;20032;-70